Time;durP1;ratioP1;P1;durP2;ratioP2;P2;SDS_P1;SDS_P2;PMS_P1;PMS_P2;Temp;Humidity;BMP_temperature;BMP_pressure;BME280_temperature;BME280_humidity;BME280_pressure;Samples;Min_cycle;Max_cycle;Signal;HPM_P1;HPM_P2
2021/05/26 00:02:16;;;;;;;18.53;9.50;;;;;;;-145.50;100.00;65435.88;4981629;28;20311;-73
2021/05/26 00:05:05;;;;;;;18.33;8.27;;;;;;;-145.50;100.00;65435.88;4966533;28;20070;-74
2021/05/26 00:07:53;;;;;;;15.00;5.95;;;;;;;-145.50;100.00;65435.88;4981259;28;20144;-73
2021/05/26 00:10:40;;;;;;;16.52;6.07;;;;;;;-145.50;100.00;65435.88;4981725;28;20252;-73
2021/05/26 00:13:28;;;;;;;10.70;4.68;;;;;;;-145.50;100.00;65435.88;4981088;28;20153;-74
2021/05/26 00:16:16;;;;;;;8.40;4.00;;;;;;;-145.50;100.00;65435.88;4966542;28;20091;-74
2021/05/26 00:19:06;;;;;;;6.55;2.95;;;;;;;-145.50;100.00;65435.88;4970676;28;20941;-74
2021/05/26 00:21:54;;;;;;;3.83;1.98;;;;;;;-145.50;100.00;65435.88;4978823;28;20113;-73
2021/05/26 00:24:41;;;;;;;5.38;1.92;;;;;;;-145.50;100.00;65435.88;4974082;28;20146;-73
2021/05/26 00:27:29;;;;;;;4.72;2.20;;;;;;;-145.50;100.00;65435.88;4980580;28;20157;-73
2021/05/26 00:30:17;;;;;;;5.45;1.85;;;;;;;-145.50;100.00;65435.88;4964500;28;20495;-73
2021/05/26 00:33:04;;;;;;;4.85;1.90;;;;;;;-145.50;100.00;65435.88;4955804;28;20133;-75
2021/05/26 00:35:51;;;;;;;6.57;1.70;;;;;;;-145.50;100.00;65435.88;4964298;28;20152;-75
2021/05/26 00:38:38;;;;;;;5.00;2.00;;;;;;;-145.50;100.00;65435.88;4963173;28;20104;-75
2021/05/26 00:41:28;;;;;;;4.63;1.50;;;;;;;-145.50;100.00;65435.88;4965301;28;20468;-75
2021/05/26 00:44:16;;;;;;;7.70;1.85;;;;;;;-145.50;100.00;65435.88;4962611;28;20518;-75
2021/05/26 00:47:06;;;;;;;3.10;1.40;;;;;;;-145.50;100.00;65435.88;4965132;28;20077;-75
2021/05/26 00:49:53;;;;;;;3.58;1.80;;;;;;;-145.50;100.00;65435.88;4980318;28;20679;-75
2021/05/26 00:52:40;;;;;;;5.32;1.70;;;;;;;-145.50;100.00;65435.88;4971549;28;20581;-75
2021/05/26 00:55:32;;;;;;;4.38;1.92;;;;;;;-145.50;100.00;65435.88;4978770;28;20177;-75
2021/05/26 00:58:20;;;;;;;6.90;1.70;;;;;;;-145.50;100.00;65435.88;4970677;28;20136;-73
2021/05/26 01:01:07;;;;;;;6.72;1.90;;;;;;;-145.50;100.00;65435.88;4978265;28;20411;-73
2021/05/26 01:03:57;;;;;;;5.20;1.77;;;;;;;-145.50;100.00;65435.88;4972201;28;20097;-73
2021/05/26 01:06:44;;;;;;;5.32;1.60;;;;;;;-145.50;100.00;65435.88;4979333;28;20057;-73
2021/05/26 01:09:31;;;;;;;2.85;1.80;;;;;;;-145.50;100.00;65435.88;4973355;28;20470;-73
2021/05/26 01:12:19;;;;;;;9.13;2.25;;;;;;;-145.50;100.00;65435.88;4960838;28;20105;-74
2021/05/26 01:15:08;;;;;;;4.53;1.60;;;;;;;-145.50;100.00;65435.88;4968282;28;20144;-74
2021/05/26 01:17:55;;;;;;;5.38;1.80;;;;;;;-145.50;100.00;65435.88;4979242;28;20082;-74
2021/05/26 01:20:45;;;;;;;5.35;1.70;;;;;;;-145.50;100.00;65435.88;4969964;28;20493;-74
2021/05/26 01:23:33;;;;;;;4.32;2.03;;;;;;;-145.50;100.00;65435.88;4981828;28;20472;-74
2021/05/26 01:26:21;;;;;;;7.00;2.42;;;;;;;-145.50;100.00;65435.88;4971885;28;20721;-74
2021/05/26 01:29:08;;;;;;;7.82;2.00;;;;;;;-145.50;100.00;65435.88;4976505;28;20054;-74
2021/05/26 01:31:56;;;;;;;3.80;2.25;;;;;;;-145.50;100.00;65435.88;4954480;28;20081;-74
2021/05/26 01:34:43;;;;;;;6.50;2.63;;;;;;;-145.50;100.00;65435.88;4963929;28;20422;-73
2021/05/26 01:37:30;;;;;;;4.28;2.15;;;;;;;-145.50;100.00;65435.88;4960522;28;20184;-74
2021/05/26 01:40:18;;;;;;;4.25;2.35;;;;;;;-145.50;100.00;65435.88;4981429;28;20165;-74
2021/05/26 01:43:06;;;;;;;7.68;2.97;;;;;;;-145.50;100.00;65435.88;4967630;28;20144;-74
2021/05/26 01:45:53;;;;;;;4.75;2.78;;;;;;;-145.50;100.00;65435.88;4977076;28;20051;-74
2021/05/26 01:48:45;;;;;;;7.17;2.70;;;;;;;-145.50;100.00;65435.88;4977319;28;20133;-74
2021/05/26 01:51:33;;;;;;;8.55;3.03;;;;;;;-145.50;100.00;65435.88;4983845;28;20347;-74
2021/05/26 01:54:20;;;;;;;8.85;3.03;;;;;;;-145.50;100.00;65435.88;4977732;28;20078;-74
2021/05/26 01:57:08;;;;;;;5.57;2.93;;;;;;;-145.50;100.00;65435.88;4978829;28;20057;-74
2021/05/26 01:59:55;;;;;;;4.53;2.42;;;;;;;-145.50;100.00;65435.88;4983062;28;20335;-74
2021/05/26 02:02:42;;;;;;;7.55;2.92;;;;;;;-145.50;100.00;65435.88;4978608;28;20058;-74
2021/05/26 02:05:30;;;;;;;3.75;2.78;;;;;;;-145.50;100.00;65435.88;4982876;28;20054;-74
2021/05/26 02:08:17;;;;;;;7.35;3.13;;;;;;;-145.50;100.00;65435.88;4951307;28;20242;-74
2021/05/26 02:14:11;;;;;;;4.72;2.67;;;;;;;-145.50;100.00;65435.88;4976993;28;20082;-74
2021/05/26 02:16:59;;;;;;;4.70;2.85;;;;;;;-145.50;100.00;65435.88;4978994;28;20116;-74
2021/05/26 02:19:46;;;;;;;6.50;2.93;;;;;;;-145.50;100.00;65435.88;4973481;28;20058;-74
2021/05/26 02:22:34;;;;;;;5.22;3.10;;;;;;;-145.50;100.00;65435.88;4978264;28;20050;-74
2021/05/26 02:25:23;;;;;;;7.70;3.22;;;;;;;-145.50;100.00;65435.88;4976177;28;20054;-74
2021/05/26 02:28:10;;;;;;;8.68;3.85;;;;;;;-145.50;100.00;65435.88;4982333;28;20086;-73
2021/05/26 02:30:58;;;;;;;6.05;3.67;;;;;;;-145.50;100.00;65435.88;4977530;28;20132;-74
2021/05/26 02:33:45;;;;;;;5.18;3.03;;;;;;;-145.50;100.00;65435.88;4979144;28;20401;-74
2021/05/26 02:36:33;;;;;;;7.72;3.53;;;;;;;-145.50;100.00;65435.88;4970892;28;20058;-74
2021/05/26 02:39:25;;;;;;;4.73;3.33;;;;;;;-145.50;100.00;65435.88;4966334;28;20078;-74
2021/05/26 02:42:13;;;;;;;7.03;3.95;;;;;;;-145.50;100.00;65435.88;4974373;28;20094;-74
2021/05/26 02:45:24;;;;;;;8.90;3.58;;;;;;;-145.50;100.00;65435.88;4965251;28;20156;-73
2021/05/26 02:48:13;;;;;;;6.43;3.25;;;;;;;-145.50;100.00;65435.88;4971338;28;20537;-74
2021/05/26 02:51:00;;;;;;;8.85;3.83;;;;;;;-145.50;100.00;65435.88;4979432;28;20138;-73
2021/05/26 02:53:49;;;;;;;9.82;4.07;;;;;;;-145.50;100.00;65435.88;4958341;28;20050;-74
2021/05/26 02:56:40;;;;;;;7.20;4.35;;;;;;;-145.50;100.00;65435.88;4981516;28;20132;-74
2021/05/26 02:59:32;;;;;;;5.90;3.88;;;;;;;-145.50;100.00;65435.88;4970260;28;20863;-74
2021/05/26 03:02:19;;;;;;;5.43;3.90;;;;;;;-145.50;100.00;65435.88;4955965;28;20299;-74
2021/05/26 03:05:19;;;;;;;11.45;4.97;;;;;;;-145.50;100.00;65435.88;4975543;28;20158;-74
2021/05/26 03:08:07;;;;;;;12.27;5.30;;;;;;;-145.50;100.00;65435.88;4983028;28;20104;-73
2021/05/26 03:10:57;;;;;;;8.52;5.55;;;;;;;-145.50;100.00;65435.88;4976867;28;20145;-73
2021/05/26 03:13:46;;;;;;;13.60;6.00;;;;;;;-145.50;100.00;65435.88;4979588;28;20149;-73
2021/05/26 03:16:34;;;;;;;9.45;5.65;;;;;;;-145.50;100.00;65435.88;4952482;28;20078;-73
2021/05/26 03:19:59;;;;;;;10.73;5.47;;;;;;;-145.50;100.00;65435.88;4981165;28;20050;-75
2021/05/26 03:22:56;;;;;;;10.55;5.90;;;;;;;-145.50;100.00;65435.88;4956997;28;20117;-73
2021/05/26 03:25:47;;;;;;;13.50;7.13;;;;;;;-145.50;100.00;65435.88;4977907;28;20161;-73
2021/05/26 03:29:16;;;;;;;13.15;6.47;;;;;;;-145.50;100.00;65435.88;4972830;28;20086;-73
2021/05/26 03:32:04;;;;;;;13.70;7.55;;;;;;;-145.50;100.00;65435.88;4971979;28;20486;-73
2021/05/26 03:34:53;;;;;;;20.52;6.95;;;;;;;-145.50;100.00;65435.88;4980871;28;20136;-75
2021/05/26 03:37:42;;;;;;;9.32;5.78;;;;;;;-145.50;100.00;65435.88;4960702;28;20093;-73
2021/05/26 03:40:35;;;;;;;10.38;6.35;;;;;;;-145.50;100.00;65435.88;4979079;28;20133;-73
2021/05/26 03:43:23;;;;;;;12.88;7.28;;;;;;;-145.50;100.00;65435.88;4969512;28;20133;-74
2021/05/26 03:46:10;;;;;;;14.02;7.72;;;;;;;-145.50;100.00;65435.88;4981691;28;20050;-74
2021/05/26 03:48:59;;;;;;;10.80;6.75;;;;;;;-145.50;100.00;65435.88;4963448;28;20175;-73
2021/05/26 03:51:46;;;;;;;11.52;6.70;;;;;;;-145.50;100.00;65435.88;4978208;28;20149;-74
2021/05/26 03:54:34;;;;;;;13.00;7.30;;;;;;;-145.50;100.00;65435.88;4958621;28;20653;-73
2021/05/26 03:57:25;;;;;;;15.45;8.05;;;;;;;-145.50;100.00;65435.88;4979481;28;20089;-76
2021/05/26 04:00:21;;;;;;;15.20;8.07;;;;;;;-145.50;100.00;65435.88;4978276;28;20138;-74
2021/05/26 04:03:14;;;;;;;17.02;9.13;;;;;;;-145.50;100.00;65435.88;4980818;28;20105;-74
2021/05/26 04:06:02;;;;;;;21.60;9.52;;;;;;;-145.50;100.00;65435.88;4981612;28;20565;-74
2021/05/26 04:08:51;;;;;;;21.27;10.15;;;;;;;-145.50;100.00;65435.88;4955956;28;20553;-73
2021/05/26 04:11:39;;;;;;;21.90;9.82;;;;;;;-145.50;100.00;65435.88;4978053;28;20167;-74
2021/05/26 04:14:27;;;;;;;22.60;10.57;;;;;;;-145.50;100.00;65435.88;4978715;28;20477;-73
2021/05/26 04:17:15;;;;;;;19.75;10.85;;;;;;;-145.50;100.00;65435.88;4980733;28;20140;-73
2021/05/26 04:20:05;;;;;;;24.98;11.98;;;;;;;-145.50;100.00;65435.88;4977710;28;20082;-73
2021/05/26 04:22:52;;;;;;;22.77;11.98;;;;;;;-145.50;100.00;65435.88;4973882;28;20561;-73
2021/05/26 04:25:40;;;;;;;20.55;11.30;;;;;;;-145.50;100.00;65435.88;4971071;28;20161;-73
2021/05/26 04:28:28;;;;;;;21.63;10.97;;;;;;;-145.50;100.00;65435.88;4980513;28;20090;-74
2021/05/26 04:31:16;;;;;;;25.40;10.10;;;;;;;-145.50;100.00;65435.88;4972070;28;20128;-74
2021/05/26 04:34:04;;;;;;;30.65;10.00;;;;;;;-145.50;100.00;65435.88;4979069;28;20402;-74
2021/05/26 04:36:51;;;;;;;20.20;7.78;;;;;;;-145.50;100.00;65435.88;4969681;28;20086;-74
2021/05/26 04:39:38;;;;;;;17.15;7.40;;;;;;;-145.50;100.00;65435.88;4980362;28;20441;-73
2021/05/26 04:42:26;;;;;;;19.08;7.85;;;;;;;-145.50;100.00;65435.88;4972091;28;20107;-73
2021/05/26 04:45:13;;;;;;;14.00;6.00;;;;;;;-145.50;100.00;65435.88;4983993;28;20089;-74
2021/05/26 04:48:01;;;;;;;23.10;6.68;;;;;;;-145.50;100.00;65435.88;4963849;28;20731;-74
2021/05/26 04:50:48;;;;;;;16.33;6.25;;;;;;;-145.50;100.00;65435.88;4975579;28;20621;-74
2021/05/26 04:53:35;;;;;;;19.67;6.65;;;;;;;-145.50;100.00;65435.88;4972483;28;20050;-74
2021/05/26 04:56:23;;;;;;;17.77;6.85;;;;;;;-145.50;100.00;65435.88;4979766;28;20047;-73
2021/05/26 04:59:11;;;;;;;14.70;5.40;;;;;;;-145.50;100.00;65435.88;4974097;28;20502;-74
2021/05/26 05:01:59;;;;;;;23.85;6.35;;;;;;;-145.50;100.00;65435.88;4973758;28;20320;-73
2021/05/26 05:04:46;;;;;;;16.13;6.43;;;;;;;-145.50;100.00;65435.88;4958918;28;20101;-74
2021/05/26 05:07:33;;;;;;;24.58;6.95;;;;;;;-145.50;100.00;65435.88;4978812;28;20658;-74
2021/05/26 05:10:20;;;;;;;18.63;6.50;;;;;;;-145.50;100.00;65435.88;4975528;28;20561;-73
2021/05/26 05:13:07;;;;;;;13.68;6.07;;;;;;;-145.50;100.00;65435.88;4985949;28;20155;-74
2021/05/26 05:15:54;;;;;;;15.07;6.18;;;;;;;-145.50;100.00;65435.88;4957059;28;20481;-74
2021/05/26 05:18:41;;;;;;;15.95;6.45;;;;;;;-145.50;100.00;65435.88;4978150;28;20086;-74
2021/05/26 05:21:28;;;;;;;18.77;6.70;;;;;;;-145.50;100.00;65435.88;4959109;28;20478;-74
2021/05/26 05:24:16;;;;;;;20.38;6.97;;;;;;;-145.50;100.00;65435.88;4983576;28;20363;-74
2021/05/26 05:27:03;;;;;;;20.85;6.28;;;;;;;-145.50;100.00;65435.88;4972707;28;20110;-74
2021/05/26 05:29:50;;;;;;;15.10;7.07;;;;;;;-145.50;100.00;65435.88;4962642;28;20074;-74
2021/05/26 05:32:37;;;;;;;13.45;6.60;;;;;;;-145.50;100.00;65435.88;4970453;28;20516;-74
2021/05/26 05:35:26;;;;;;;17.00;6.85;;;;;;;-145.50;100.00;65435.88;4964098;28;20077;-74
2021/05/26 05:38:13;;;;;;;14.82;6.60;;;;;;;-145.50;100.00;65435.88;4977177;28;20054;-74
2021/05/26 05:41:00;;;;;;;15.30;7.10;;;;;;;-145.50;100.00;65435.88;4963437;28;20082;-74
2021/05/26 05:43:47;;;;;;;16.50;6.93;;;;;;;-145.50;100.00;65435.88;4960360;28;20137;-74
2021/05/26 05:46:34;;;;;;;14.02;7.03;;;;;;;-145.50;100.00;65435.88;4975618;28;20570;-74
2021/05/26 05:49:21;;;;;;;16.60;6.45;;;;;;;-145.50;100.00;65435.88;4980949;28;20120;-74
2021/05/26 05:52:10;;;;;;;14.90;6.53;;;;;;;-145.50;100.00;65435.88;4982657;28;20086;-73
2021/05/26 05:54:58;;;;;;;15.95;6.38;;;;;;;-145.50;100.00;65435.88;4981950;28;20058;-74
2021/05/26 05:57:45;;;;;;;16.80;5.82;;;;;;;-145.50;100.00;65435.88;4971918;28;20136;-73
2021/05/26 06:00:32;;;;;;;19.45;5.97;;;;;;;-145.50;100.00;65435.88;4980457;28;20054;-73
2021/05/26 06:03:19;;;;;;;16.85;6.75;;;;;;;-145.50;100.00;65435.88;4977872;28;20078;-73
2021/05/26 06:06:08;;;;;;;10.95;5.90;;;;;;;-145.50;100.00;65435.88;4981161;28;20073;-73
2021/05/26 06:08:55;;;;;;;;;;;;;;;-145.50;100.00;65435.88;4975072;28;20143;-73
2021/05/26 06:11:42;;;;;;;21.70;6.93;;;;;;;-145.50;100.00;65435.88;4975630;28;20459;-73
2021/05/26 06:14:29;;;;;;;19.02;7.32;;;;;;;-145.50;100.00;65435.88;4969844;28;20141;-73
2021/05/26 06:17:17;;;;;;;18.48;7.90;;;;;;;-145.50;100.00;65435.88;4983232;28;20058;-73
2021/05/26 06:20:04;;;;;;;17.10;7.75;;;;;;;-145.50;100.00;65435.88;4971932;28;20052;-73
2021/05/26 06:22:51;;;;;;;16.20;8.10;;;;;;;-145.50;100.00;65435.88;4982190;28;20203;-73
2021/05/26 06:25:38;;;;;;;16.40;7.55;;;;;;;-145.50;100.00;65435.88;4973411;28;20100;-73
2021/05/26 06:28:26;;;;;;;17.00;7.68;;;;;;;-145.50;100.00;65435.88;4978135;28;20101;-74
2021/05/26 06:31:16;;;;;;;16.65;8.43;;;;;;;-145.50;100.00;65435.88;4976527;28;20410;-73
2021/05/26 06:34:03;;;;;;;16.80;8.13;;;;;;;-145.50;100.00;65435.88;4963578;28;20133;-73
2021/05/26 06:36:52;;;;;;;18.80;7.93;;;;;;;-145.50;100.00;65435.88;4981941;28;20081;-73
2021/05/26 06:39:39;;;;;;;17.05;7.57;;;;;;;-145.50;100.00;65435.88;4981890;28;20081;-73
2021/05/26 06:42:26;;;;;;;18.02;7.82;;;;;;;-145.50;100.00;65435.88;4975595;28;20140;-75
2021/05/26 06:45:14;;;;;;;18.67;8.48;;;;;;;-145.50;100.00;65435.88;4982543;28;20758;-73
2021/05/26 06:48:01;;;;;;;15.77;8.07;;;;;;;-145.50;100.00;65435.88;4979686;28;20112;-73
2021/05/26 06:50:48;;;;;;;15.82;7.45;;;;;;;-145.50;100.00;65435.88;4976018;28;20086;-73
2021/05/26 06:53:35;;;;;;;18.00;7.25;;;;;;;-145.50;100.00;65435.88;4977861;28;20144;-74
2021/05/26 06:56:23;;;;;;;15.30;8.45;;;;;;;-145.50;100.00;65435.88;4984384;28;20402;-73
2021/05/26 06:59:10;;;;;;;20.45;8.95;;;;;;;-145.50;100.00;65435.88;4976592;28;20098;-74
2021/05/26 07:01:57;;;;;;;15.57;7.22;;;;;;;-145.50;100.00;65435.88;4981811;28;20561;-76
2021/05/26 07:04:44;;;;;;;23.15;9.38;;;;;;;-145.50;100.00;65435.88;4952699;28;20065;-73
2021/05/26 07:07:31;;;;;;;14.80;8.10;;;;;;;-145.50;100.00;65435.88;4980849;28;20130;-73
2021/05/26 07:10:19;;;;;;;19.25;9.02;;;;;;;-145.50;100.00;65435.88;4975916;28;20051;-73
2021/05/26 07:13:07;;;;;;;23.52;9.20;;;;;;;-145.50;100.00;65435.88;4964453;28;20105;-74
2021/05/26 07:15:54;;;;;;;13.67;8.97;;;;;;;-145.50;100.00;65435.88;4957949;28;20089;-74
2021/05/26 07:18:46;;;;;;;21.55;9.73;;;;;;;-145.50;100.00;65435.88;4962301;28;20898;-73
2021/05/26 07:21:33;;;;;;;19.45;9.80;;;;;;;-145.50;100.00;65435.88;4973743;28;20054;-73
2021/05/26 07:24:21;;;;;;;17.23;9.32;;;;;;;-145.50;100.00;65435.88;4982523;28;20058;-74
2021/05/26 07:27:08;;;;;;;17.30;9.65;;;;;;;-145.50;100.00;65435.88;4974647;28;20055;-73
2021/05/26 07:29:55;;;;;;;23.05;9.93;;;;;;;-145.50;100.00;65435.88;4980479;28;20055;-74
2021/05/26 07:32:43;;;;;;;22.88;10.52;;;;;;;-145.50;100.00;65435.88;4980820;28;20050;-73
2021/05/26 07:35:30;;;;;;;16.38;9.68;;;;;;;-145.50;100.00;65435.88;4978594;28;20438;-75
2021/05/26 07:38:17;;;;;;;23.98;10.40;;;;;;;-145.50;100.00;65435.88;4971989;28;20081;-75
2021/05/26 07:41:06;;;;;;;16.90;10.27;;;;;;;-145.50;100.00;65435.88;4978063;28;20054;-75
2021/05/26 07:43:53;;;;;;;21.90;10.47;;;;;;;-145.50;100.00;65435.88;4980824;28;20548;-73
2021/05/26 07:46:40;;;;;;;19.10;10.77;;;;;;;-145.50;100.00;65435.88;4955390;28;20304;-73
2021/05/26 07:49:27;;;;;;;14.82;9.82;;;;;;;-145.50;100.00;65435.88;4978707;28;20073;-73
2021/05/26 07:52:19;;;;;;;17.00;10.18;;;;;;;-145.50;100.00;65435.88;4975299;28;20077;-74
2021/05/26 07:55:07;;;;;;;14.95;10.45;;;;;;;-145.50;100.00;65435.88;4962200;28;20057;-74
2021/05/26 07:57:54;;;;;;;17.30;10.80;;;;;;;-145.50;100.00;65435.88;4973223;28;20497;-74
2021/05/26 08:00:41;;;;;;;16.23;9.77;;;;;;;-145.50;100.00;65435.88;4974235;28;20081;-74
2021/05/26 08:03:28;;;;;;;19.38;10.98;;;;;;;-145.50;100.00;65435.88;4974113;28;20085;-74
2021/05/26 08:06:15;;;;;;;15.63;10.00;;;;;;;-145.50;100.00;65435.88;4985485;28;20100;-74
2021/05/26 08:09:03;;;;;;;19.20;10.35;;;;;;;-145.50;100.00;65435.88;4973818;28;20467;-74
2021/05/26 08:11:50;;;;;;;14.87;9.70;;;;;;;-145.50;100.00;65435.88;4981939;28;20118;-74
2021/05/26 08:14:38;;;;;;;16.73;10.05;;;;;;;-145.50;100.00;65435.88;4952954;28;20399;-74
2021/05/26 08:17:25;;;;;;;17.20;9.73;;;;;;;-145.50;100.00;65435.88;4981320;28;20141;-76
2021/05/26 08:20:13;;;;;;;20.02;10.13;;;;;;;-145.50;100.00;65435.88;4974889;28;20109;-74
2021/05/26 08:23:00;;;;;;;14.32;10.07;;;;;;;-145.50;100.00;65435.88;4962202;28;20058;-74
2021/05/26 08:25:47;;;;;;;18.67;9.88;;;;;;;-145.50;100.00;65435.88;4974173;28;20093;-73
2021/05/26 08:28:34;;;;;;;18.08;9.38;;;;;;;-145.50;100.00;65435.88;4974315;28;20057;-73
2021/05/26 08:31:21;;;;;;;13.20;9.65;;;;;;;-145.50;100.00;65435.88;4956173;28;20073;-74
2021/05/26 08:34:09;;;;;;;12.98;8.50;;;;;;;-145.50;100.00;65435.88;4977636;28;20561;-74
2021/05/26 08:36:57;;;;;;;14.73;8.80;;;;;;;-145.50;100.00;65435.88;4981117;28;20045;-74
2021/05/26 08:39:44;;;;;;;12.95;8.70;;;;;;;-145.50;100.00;65435.88;4982710;28;20120;-73
2021/05/26 08:42:31;;;;;;;14.95;9.65;;;;;;;-145.50;100.00;65435.88;4972354;28;20805;-73
2021/05/26 08:45:19;;;;;;;13.45;9.00;;;;;;;-145.50;100.00;65435.88;4959865;28;20530;-73
2021/05/26 08:48:15;;;;;;;13.27;10.37;;;;;;;-145.50;100.00;65435.88;4956454;28;20491;-74
2021/05/26 08:51:10;;;;;;;13.75;9.77;;;;;;;-145.50;100.00;65435.88;4960750;28;20086;-74
2021/05/26 08:53:58;;;;;;;16.42;9.75;;;;;;;-145.50;100.00;65435.88;4952269;28;20420;-74
2021/05/26 08:56:45;;;;;;;15.18;9.43;;;;;;;-145.50;100.00;65435.88;4958083;28;20086;-73
2021/05/26 08:59:36;;;;;;;15.15;10.18;;;;;;;-145.50;100.00;65435.88;4969118;28;20081;-75
2021/05/26 09:02:23;;;;;;;15.15;9.98;;;;;;;-145.50;100.00;65435.88;4964961;28;20149;-74
2021/05/26 09:05:28;;;;;;;13.45;8.88;;;;;;;-145.50;100.00;65435.88;4972900;28;20093;-74
2021/05/26 09:08:15;;;;;;;17.85;9.93;;;;;;;-145.50;100.00;65435.88;4963820;28;20459;-74
2021/05/26 09:11:29;;;;;;;16.60;9.50;;;;;;;-145.50;100.00;65435.88;4967232;28;20474;-74
2021/05/26 09:14:16;;;;;;;17.10;10.10;;;;;;;-145.50;100.00;65435.88;4975181;28;20118;-73
2021/05/26 09:17:10;;;;;;;15.20;10.43;;;;;;;-145.50;100.00;65435.88;4973001;28;20058;-73
2021/05/26 09:20:22;;;;;;;16.13;8.55;;;;;;;-145.50;100.00;65435.88;4964444;28;20469;-73
2021/05/26 09:23:28;;;;;;;13.25;9.02;;;;;;;-145.50;100.00;65435.88;4953491;28;20085;-74
2021/05/26 09:26:20;;;;;;;12.70;8.82;;;;;;;-145.50;100.00;65435.88;4973095;28;20655;-73
2021/05/26 09:29:07;;;;;;;13.55;8.50;;;;;;;-145.50;100.00;65435.88;4954785;28;20532;-74
2021/05/26 09:32:14;;;;;;;13.02;8.63;;;;;;;-145.50;100.00;65435.88;4964647;28;20054;-73
2021/05/26 09:35:03;;;;;;;13.50;8.10;;;;;;;-145.50;100.00;65435.88;4960955;28;20124;-73
2021/05/26 09:37:57;;;;;;;14.35;7.95;;;;;;;-145.50;100.00;65435.88;4976586;28;20299;-74
2021/05/26 09:40:44;;;;;;;12.27;9.43;;;;;;;-145.50;100.00;65435.88;4968347;28;20058;-73
2021/05/26 09:43:42;;;;;;;12.13;8.90;;;;;;;-145.50;100.00;65435.88;4980508;28;20120;-73
2021/05/26 09:46:45;;;;;;;12.98;8.60;;;;;;;-145.50;100.00;65435.88;4977418;28;20065;-74
2021/05/26 09:49:33;;;;;;;12.75;7.95;;;;;;;-145.50;100.00;65435.88;4964764;28;20054;-73
2021/05/26 09:52:20;;;;;;;13.98;7.70;;;;;;;-145.50;100.00;65435.88;4972804;28;20050;-73
2021/05/26 09:55:17;;;;;;;12.23;7.40;;;;;;;-145.50;100.00;65435.88;4981897;28;20054;-74
2021/05/26 09:58:10;;;;;;;12.38;6.75;;;;;;;-145.50;100.00;65435.88;4974542;28;20406;-74
2021/05/26 10:00:59;;;;;;;13.32;6.28;;;;;;;-145.50;100.00;65435.88;4986458;28;20160;-75
2021/05/26 10:03:46;;;;;;;11.27;6.05;;;;;;;-145.50;100.00;65435.88;4972357;28;20066;-74
2021/05/26 10:06:34;;;;;;;8.32;5.85;;;;;;;-145.50;100.00;65435.88;4983034;28;20116;-74
2021/05/26 10:09:23;;;;;;;11.25;7.78;;;;;;;-145.50;100.00;65435.88;4980284;28;20161;-74
2021/05/26 10:12:12;;;;;;;14.15;7.78;;;;;;;-145.50;100.00;65435.88;4982206;28;20089;-74
2021/05/26 10:15:02;;;;;;;10.13;6.90;;;;;;;-145.50;100.00;65435.88;4958932;28;20074;-74
2021/05/26 10:17:54;;;;;;;12.60;6.47;;;;;;;-145.50;100.00;65435.88;4962059;28;20058;-73
2021/05/26 10:20:43;;;;;;;11.27;7.13;;;;;;;-145.50;100.00;65435.88;4968031;28;20105;-75
2021/05/26 10:23:35;;;;;;;13.52;8.05;;;;;;;-145.50;100.00;65435.88;4983468;28;20085;-75
2021/05/26 10:26:41;;;;;;;17.02;8.68;;;;;;;-145.50;100.00;65435.88;4973754;28;20054;-76
2021/05/26 10:29:56;;;;;;;13.95;8.20;;;;;;;-145.50;100.00;65435.88;4982052;28;20054;-75
2021/05/26 10:32:48;;;;;;;12.27;7.32;;;;;;;-145.50;100.00;65435.88;4966809;28;20053;-75
2021/05/26 10:35:56;;;;;;;10.48;6.90;;;;;;;-145.50;100.00;65435.88;4985228;28;20081;-73
2021/05/26 10:38:56;;;;;;;;;;;;;;;-145.50;100.00;65435.88;4960747;28;20133;-74
2021/05/26 10:41:49;;;;;;;4.32;2.10;;;;;;;-145.50;100.00;65435.88;4978077;28;20231;-73
2021/05/26 10:45:04;;;;;;;5.13;1.52;;;;;;;-145.50;100.00;65435.88;4969913;28;20117;-75
2021/05/26 10:48:01;;;;;;;9.07;1.80;;;;;;;-145.50;100.00;65435.88;4960235;28;20092;-73
2021/05/26 10:51:07;;;;;;;3.55;1.38;;;;;;;-145.50;100.00;65435.88;4978390;28;20101;-73
2021/05/26 10:54:04;;;;;;;3.95;1.50;;;;;;;-145.50;100.00;65435.88;4981158;28;20055;-73
2021/05/26 10:57:00;;;;;;;4.70;2.00;;;;;;;-145.50;100.00;65435.88;4976718;28;20046;-73
2021/05/26 11:00:06;;;;;;;3.20;1.83;;;;;;;-145.50;100.00;65435.88;4976519;28;20569;-73
2021/05/26 11:03:11;;;;;;;3.90;1.85;;;;;;;-145.50;100.00;65435.88;4976048;28;20074;-73
2021/05/26 11:06:03;;;;;;;4.95;1.88;;;;;;;-145.50;100.00;65435.88;4974490;28;20558;-74
2021/05/26 11:08:56;;;;;;;5.07;2.13;;;;;;;-145.50;100.00;65435.88;4979858;28;20057;-75
2021/05/26 11:11:48;;;;;;;4.65;2.53;;;;;;;-145.50;100.00;65435.88;4969001;28;20565;-74
2021/05/26 11:14:39;;;;;;;;;;;;;;;-145.50;100.00;65435.88;4979417;28;20438;-73
2021/05/26 11:17:27;;;;;;;4.95;1.95;;;;;;;-145.50;100.00;65435.88;4982275;28;20314;-74
2021/05/26 11:20:27;;;;;;;4.03;2.22;;;;;;;-145.50;100.00;65435.88;4983805;28;20061;-74
2021/05/26 11:23:15;;;;;;;2.88;1.90;;;;;;;-145.50;100.00;65435.88;4973884;28;20082;-74
2021/05/26 11:26:10;;;;;;;4.18;1.70;;;;;;;-145.50;100.00;65435.88;4963283;28;20462;-74
2021/05/26 11:28:57;;;;;;;5.20;1.77;;;;;;;-145.50;100.00;65435.88;4957094;28;20411;-74
2021/05/26 11:31:44;;;;;;;4.85;1.60;;;;;;;-145.50;100.00;65435.88;4979941;28;20248;-74
2021/05/26 11:34:31;;;;;;;6.30;1.80;;;;;;;-145.50;100.00;65435.88;4985043;28;20078;-74
2021/05/26 11:37:25;;;;;;;5.22;2.20;;;;;;;-145.50;100.00;65435.88;4980344;28;20050;-74
2021/05/26 11:40:23;;;;;;;3.88;2.28;;;;;;;-145.50;100.00;65435.88;4979485;28;20050;-73
2021/05/26 11:43:12;;;;;;;3.05;2.20;;;;;;;-145.50;100.00;65435.88;4982918;28;20125;-73
2021/05/26 11:46:06;;;;;;;7.00;2.63;;;;;;;-145.50;100.00;65435.88;4984224;28;20491;-73
2021/05/26 11:48:54;;;;;;;5.03;2.70;;;;;;;-145.50;100.00;65435.88;4979926;28;20054;-73
2021/05/26 11:51:44;;;;;;;4.80;2.27;;;;;;;-145.50;100.00;65435.88;4957305;28;20573;-73
2021/05/26 11:54:32;;;;;;;7.78;2.33;;;;;;;-145.50;100.00;65435.88;4960505;28;20053;-74
2021/05/26 11:57:36;;;;;;;5.07;2.40;;;;;;;-145.50;100.00;65435.88;4977921;28;20046;-74
2021/05/26 12:00:34;;;;;;;6.80;2.22;;;;;;;-145.50;100.00;65435.88;4980984;28;20550;-74
2021/05/26 12:03:24;;;;;;;9.00;2.58;;;;;;;-145.50;100.00;65435.88;4975239;28;20050;-74
2021/05/26 12:06:11;;;;;;;9.77;2.90;;;;;;;-145.50;100.00;65435.88;4974718;28;20466;-74
2021/05/26 12:08:59;;;;;;;3.63;2.67;;;;;;;-145.50;100.00;65435.88;4974514;28;20101;-73
2021/05/26 12:11:46;;;;;;;5.88;3.70;;;;;;;-145.50;100.00;65435.88;4978684;28;20078;-73
2021/05/26 12:14:45;;;;;;;10.95;4.15;;;;;;;-145.50;100.00;65435.88;4960649;28;20141;-74
2021/05/26 12:17:33;;;;;;;11.40;4.53;;;;;;;-145.50;100.00;65435.88;4980017;28;20062;-74
2021/05/26 12:20:25;;;;;;;7.65;3.67;;;;;;;-145.50;100.00;65435.88;4976444;28;20054;-74
2021/05/26 12:23:12;;;;;;;12.10;4.35;;;;;;;-145.50;100.00;65435.88;4977765;28;20058;-74
2021/05/26 12:26:02;;;;;;;12.32;4.63;;;;;;;-145.50;100.00;65435.88;4980666;28;20151;-74
2021/05/26 12:28:50;;;;;;;9.90;4.00;;;;;;;-145.50;100.00;65435.88;4980289;28;20502;-74
2021/05/26 12:31:39;;;;;;;6.15;4.20;;;;;;;-145.50;100.00;65435.88;4978993;28;20124;-74
2021/05/26 12:34:33;;;;;;;7.60;4.55;;;;;;;-145.50;100.00;65435.88;4958740;28;20054;-75
2021/05/26 12:37:36;;;;;;;9.75;5.25;;;;;;;-145.50;100.00;65435.88;4979555;28;20049;-74
2021/05/26 12:40:27;;;;;;;8.32;4.10;;;;;;;-145.50;100.00;65435.88;4965806;28;20058;-74
2021/05/26 12:43:22;;;;;;;6.07;2.60;;;;;;;-145.50;100.00;65435.88;4980283;28;20453;-74
2021/05/26 12:46:10;;;;;;;3.47;1.90;;;;;;;-145.50;100.00;65435.88;4963316;28;20487;-75
2021/05/26 12:48:57;;;;;;;2.85;1.60;;;;;;;-145.50;100.00;65435.88;4952205;28;20136;-74
2021/05/26 12:51:45;;;;;;;2.83;1.55;;;;;;;-145.50;100.00;65435.88;4980304;28;20156;-74